sensor_id;sensor_type;location;lat;lon;timestamp;P1;durP1;ratioP1;P2;durP2;ratioP2
71042;SDS011;58696;52.134;5.500;2024-02-15T00:00:28;13.20;;;5.78;;
71042;SDS011;58696;52.134;5.500;2024-02-15T00:02:55;12.35;;;5.38;;
71042;SDS011;58696;52.134;5.500;2024-02-15T00:05:24;9.55;;;5.38;;
71042;SDS011;58696;52.134;5.500;2024-02-15T00:07:50;13.23;;;6.10;;
71042;SDS011;58696;52.134;5.500;2024-02-15T00:10:17;8.20;;;4.57;;
71042;SDS011;58696;52.134;5.500;2024-02-15T00:12:46;14.13;;;5.60;;
71042;SDS011;58696;52.134;5.500;2024-02-15T00:15:19;10.45;;;5.65;;
71042;SDS011;58696;52.134;5.500;2024-02-15T00:17:46;13.48;;;6.43;;
71042;SDS011;58696;52.134;5.500;2024-02-15T00:20:13;6.90;;;5.10;;
71042;SDS011;58696;52.134;5.500;2024-02-15T00:22:44;9.98;;;5.20;;
71042;SDS011;58696;52.134;5.500;2024-02-15T00:25:14;12.40;;;5.32;;
71042;SDS011;58696;52.134;5.500;2024-02-15T00:27:40;11.70;;;4.90;;
71042;SDS011;58696;52.134;5.500;2024-02-15T00:30:08;7.10;;;5.20;;
71042;SDS011;58696;52.134;5.500;2024-02-15T00:32:35;10.93;;;4.78;;
71042;SDS011;58696;52.134;5.500;2024-02-15T00:35:04;11.23;;;4.43;;
71042;SDS011;58696;52.134;5.500;2024-02-15T00:37:36;7.97;;;5.03;;
71042;SDS011;58696;52.134;5.500;2024-02-15T00:40:06;7.88;;;4.55;;
71042;SDS011;58696;52.134;5.500;2024-02-15T00:42:35;11.40;;;4.88;;
71042;SDS011;58696;52.134;5.500;2024-02-15T00:45:03;8.50;;;4.68;;
71042;SDS011;58696;52.134;5.500;2024-02-15T00:47:34;8.65;;;4.82;;
71042;SDS011;58696;52.134;5.500;2024-02-15T00:50:02;7.60;;;4.57;;
71042;SDS011;58696;52.134;5.500;2024-02-15T00:52:29;12.07;;;4.95;;
71042;SDS011;58696;52.134;5.500;2024-02-15T00:55:01;10.27;;;5.05;;
71042;SDS011;58696;52.134;5.500;2024-02-15T00:57:30;8.45;;;4.53;;
71042;SDS011;58696;52.134;5.500;2024-02-15T01:00:01;6.20;;;4.65;;
71042;SDS011;58696;52.134;5.500;2024-02-15T01:02:32;9.48;;;4.80;;
71042;SDS011;58696;52.134;5.500;2024-02-15T01:05:02;12.48;;;4.78;;
71042;SDS011;58696;52.134;5.500;2024-02-15T01:07:31;5.97;;;4.53;;
71042;SDS011;58696;52.134;5.500;2024-02-15T01:09:58;8.43;;;4.25;;
71042;SDS011;58696;52.134;5.500;2024-02-15T01:12:27;10.02;;;4.88;;
71042;SDS011;58696;52.134;5.500;2024-02-15T01:14:53;10.80;;;4.60;;
71042;SDS011;58696;52.134;5.500;2024-02-15T01:17:21;11.35;;;4.82;;
71042;SDS011;58696;52.134;5.500;2024-02-15T01:19:48;8.90;;;4.47;;
71042;SDS011;58696;52.134;5.500;2024-02-15T01:22:14;10.88;;;4.63;;
71042;SDS011;58696;52.134;5.500;2024-02-15T01:24:41;10.82;;;5.13;;
71042;SDS011;58696;52.134;5.500;2024-02-15T01:27:08;8.60;;;5.00;;
71042;SDS011;58696;52.134;5.500;2024-02-15T01:29:37;9.65;;;5.10;;
71042;SDS011;58696;52.134;5.500;2024-02-15T01:32:03;14.38;;;6.13;;
71042;SDS011;58696;52.134;5.500;2024-02-15T01:34:31;10.27;;;6.93;;
71042;SDS011;58696;52.134;5.500;2024-02-15T01:36:58;11.48;;;8.18;;
71042;SDS011;58696;52.134;5.500;2024-02-15T01:39:25;13.55;;;7.78;;
71042;SDS011;58696;52.134;5.500;2024-02-15T01:41:52;10.32;;;8.98;;
71042;SDS011;58696;52.134;5.500;2024-02-15T01:44:23;17.83;;;8.27;;
71042;SDS011;58696;52.134;5.500;2024-02-15T01:46:51;14.75;;;10.10;;
71042;SDS011;58696;52.134;5.500;2024-02-15T01:49:21;13.93;;;9.80;;
71042;SDS011;58696;52.134;5.500;2024-02-15T01:51:52;15.57;;;10.07;;
71042;SDS011;58696;52.134;5.500;2024-02-15T01:54:25;18.23;;;10.32;;
71042;SDS011;58696;52.134;5.500;2024-02-15T01:56:53;17.38;;;10.38;;
71042;SDS011;58696;52.134;5.500;2024-02-15T01:59:23;17.92;;;10.10;;
71042;SDS011;58696;52.134;5.500;2024-02-15T02:04:20;14.43;;;10.13;;
71042;SDS011;58696;52.134;5.500;2024-02-15T02:06:52;13.18;;;9.07;;
71042;SDS011;58696;52.134;5.500;2024-02-15T02:09:25;11.95;;;8.98;;
71042;SDS011;58696;52.134;5.500;2024-02-15T02:11:53;16.23;;;9.27;;
71042;SDS011;58696;52.134;5.500;2024-02-15T02:14:23;15.98;;;8.88;;
71042;SDS011;58696;52.134;5.500;2024-02-15T02:16:53;15.60;;;8.30;;
71042;SDS011;58696;52.134;5.500;2024-02-15T02:19:21;18.33;;;8.70;;
71042;SDS011;58696;52.134;5.500;2024-02-15T02:21:52;15.02;;;8.93;;
71042;SDS011;58696;52.134;5.500;2024-02-15T02:24:21;15.20;;;8.30;;
71042;SDS011;58696;52.134;5.500;2024-02-15T02:26:54;10.77;;;7.18;;
71042;SDS011;58696;52.134;5.500;2024-02-15T02:29:23;12.07;;;7.47;;
71042;SDS011;58696;52.134;5.500;2024-02-15T02:31:49;15.07;;;8.15;;
71042;SDS011;58696;52.134;5.500;2024-02-15T02:34:18;15.57;;;7.97;;
71042;SDS011;58696;52.134;5.500;2024-02-15T02:36:46;11.55;;;6.95;;
71042;SDS011;58696;52.134;5.500;2024-02-15T02:39:17;10.20;;;7.30;;
71042;SDS011;58696;52.134;5.500;2024-02-15T02:41:44;12.00;;;7.32;;
71042;SDS011;58696;52.134;5.500;2024-02-15T02:44:15;13.45;;;6.57;;
71042;SDS011;58696;52.134;5.500;2024-02-15T02:46:44;20.17;;;7.57;;
71042;SDS011;58696;52.134;5.500;2024-02-15T02:49:10;13.57;;;7.15;;
71042;SDS011;58696;52.134;5.500;2024-02-15T02:51:39;9.93;;;6.95;;
71042;SDS011;58696;52.134;5.500;2024-02-15T02:54:06;9.57;;;6.90;;
71042;SDS011;58696;52.134;5.500;2024-02-15T02:56:37;12.68;;;6.50;;
71042;SDS011;58696;52.134;5.500;2024-02-15T02:59:06;11.63;;;7.05;;
71042;SDS011;58696;52.134;5.500;2024-02-15T03:01:35;14.20;;;6.50;;
71042;SDS011;58696;52.134;5.500;2024-02-15T03:04:02;8.93;;;6.63;;
71042;SDS011;58696;52.134;5.500;2024-02-15T03:06:31;12.40;;;6.97;;
71042;SDS011;58696;52.134;5.500;2024-02-15T03:08:58;11.70;;;6.65;;
71042;SDS011;58696;52.134;5.500;2024-02-15T03:11:27;11.38;;;6.63;;
71042;SDS011;58696;52.134;5.500;2024-02-15T03:13:56;13.25;;;6.60;;
71042;SDS011;58696;52.134;5.500;2024-02-15T03:16:26;16.60;;;6.82;;
71042;SDS011;58696;52.134;5.500;2024-02-15T03:18:53;10.23;;;5.53;;
71042;SDS011;58696;52.134;5.500;2024-02-15T03:21:22;11.65;;;6.38;;
71042;SDS011;58696;52.134;5.500;2024-02-15T03:23:49;12.93;;;5.90;;
71042;SDS011;58696;52.134;5.500;2024-02-15T03:26:21;11.20;;;5.38;;
71042;SDS011;58696;52.134;5.500;2024-02-15T03:28:55;18.30;;;6.38;;
71042;SDS011;58696;52.134;5.500;2024-02-15T03:31:24;10.75;;;5.40;;
71042;SDS011;58696;52.134;5.500;2024-02-15T03:33:51;14.43;;;5.22;;
71042;SDS011;58696;52.134;5.500;2024-02-15T03:36:20;12.65;;;5.57;;
71042;SDS011;58696;52.134;5.500;2024-02-15T03:38:49;8.20;;;5.15;;
71042;SDS011;58696;52.134;5.500;2024-02-15T03:41:20;10.25;;;4.95;;
71042;SDS011;58696;52.134;5.500;2024-02-15T03:43:52;11.10;;;5.20;;
71042;SDS011;58696;52.134;5.500;2024-02-15T03:46:20;14.85;;;5.10;;
71042;SDS011;58696;52.134;5.500;2024-02-15T03:48:47;7.57;;;4.40;;
71042;SDS011;58696;52.134;5.500;2024-02-15T03:51:17;10.13;;;4.70;;
71042;SDS011;58696;52.134;5.500;2024-02-15T03:53:49;13.57;;;5.22;;
71042;SDS011;58696;52.134;5.500;2024-02-15T03:56:18;10.40;;;5.05;;
71042;SDS011;58696;52.134;5.500;2024-02-15T03:58:47;12.07;;;4.88;;
71042;SDS011;58696;52.134;5.500;2024-02-15T04:01:16;11.85;;;4.95;;
71042;SDS011;58696;52.134;5.500;2024-02-15T04:03:43;13.70;;;5.27;;
71042;SDS011;58696;52.134;5.500;2024-02-15T04:06:16;7.90;;;4.60;;
71042;SDS011;58696;52.134;5.500;2024-02-15T04:08:45;13.25;;;4.85;;
71042;SDS011;58696;52.134;5.500;2024-02-15T04:11:12;8.25;;;4.05;;
71042;SDS011;58696;52.134;5.500;2024-02-15T04:13:39;15.43;;;5.13;;
71042;SDS011;58696;52.134;5.500;2024-02-15T04:16:08;10.13;;;4.38;;
71042;SDS011;58696;52.134;5.500;2024-02-15T04:18:40;16.45;;;5.20;;
71042;SDS011;58696;52.134;5.500;2024-02-15T04:21:08;11.90;;;5.13;;
71042;SDS011;58696;52.134;5.500;2024-02-15T04:23:37;8.70;;;4.05;;
71042;SDS011;58696;52.134;5.500;2024-02-15T04:26:04;9.80;;;4.57;;
71042;SDS011;58696;52.134;5.500;2024-02-15T04:28:30;10.43;;;4.60;;
71042;SDS011;58696;52.134;5.500;2024-02-15T04:31:00;9.55;;;4.13;;
71042;SDS011;58696;52.134;5.500;2024-02-15T04:33:26;9.10;;;3.83;;
71042;SDS011;58696;52.134;5.500;2024-02-15T04:35:53;9.95;;;4.72;;
71042;SDS011;58696;52.134;5.500;2024-02-15T04:38:19;10.73;;;4.30;;
71042;SDS011;58696;52.134;5.500;2024-02-15T04:40:46;13.65;;;4.35;;
71042;SDS011;58696;52.134;5.500;2024-02-15T04:43:13;14.50;;;4.10;;
71042;SDS011;58696;52.134;5.500;2024-02-15T04:45:42;7.35;;;3.55;;
71042;SDS011;58696;52.134;5.500;2024-02-15T04:48:08;13.07;;;3.72;;
71042;SDS011;58696;52.134;5.500;2024-02-15T04:50:35;12.98;;;4.07;;
71042;SDS011;58696;52.134;5.500;2024-02-15T04:53:05;8.43;;;4.05;;
71042;SDS011;58696;52.134;5.500;2024-02-15T04:55:33;10.50;;;3.92;;
71042;SDS011;58696;52.134;5.500;2024-02-15T04:58:02;14.00;;;4.20;;
71042;SDS011;58696;52.134;5.500;2024-02-15T05:00:30;11.73;;;3.95;;
71042;SDS011;58696;52.134;5.500;2024-02-15T05:02:57;12.70;;;3.95;;
71042;SDS011;58696;52.134;5.500;2024-02-15T05:05:27;13.67;;;4.30;;
71042;SDS011;58696;52.134;5.500;2024-02-15T05:07:55;6.38;;;3.55;;
71042;SDS011;58696;52.134;5.500;2024-02-15T05:10:27;9.07;;;3.58;;
71042;SDS011;58696;52.134;5.500;2024-02-15T05:12:53;10.18;;;3.83;;
71042;SDS011;58696;52.134;5.500;2024-02-15T05:15:25;11.48;;;3.83;;
71042;SDS011;58696;52.134;5.500;2024-02-15T05:17:57;9.05;;;3.60;;
71042;SDS011;58696;52.134;5.500;2024-02-15T05:20:23;10.45;;;3.70;;
71042;SDS011;58696;52.134;5.500;2024-02-15T05:22:51;8.63;;;3.75;;
71042;SDS011;58696;52.134;5.500;2024-02-15T05:25:20;7.25;;;3.25;;
71042;SDS011;58696;52.134;5.500;2024-02-15T05:27:51;10.13;;;4.20;;
71042;SDS011;58696;52.134;5.500;2024-02-15T05:30:20;9.65;;;3.83;;
71042;SDS011;58696;52.134;5.500;2024-02-15T05:32:50;9.95;;;3.35;;
71042;SDS011;58696;52.134;5.500;2024-02-15T05:35:20;13.18;;;4.35;;
71042;SDS011;58696;52.134;5.500;2024-02-15T05:37:46;8.43;;;3.55;;
71042;SDS011;58696;52.134;5.500;2024-02-15T05:40:13;10.88;;;3.88;;
71042;SDS011;58696;52.134;5.500;2024-02-15T05:42:42;8.27;;;4.10;;
71042;SDS011;58696;52.134;5.500;2024-02-15T05:45:27;9.80;;;3.83;;
71042;SDS011;58696;52.134;5.500;2024-02-15T05:48:03;8.65;;;3.70;;
71042;SDS011;58696;52.134;5.500;2024-02-15T05:50:33;13.45;;;4.35;;
71042;SDS011;58696;52.134;5.500;2024-02-15T05:53:00;6.80;;;3.58;;
71042;SDS011;58696;52.134;5.500;2024-02-15T05:55:27;7.60;;;3.72;;
71042;SDS011;58696;52.134;5.500;2024-02-15T05:58:00;7.55;;;3.92;;
71042;SDS011;58696;52.134;5.500;2024-02-15T06:00:27;12.68;;;4.22;;
71042;SDS011;58696;52.134;5.500;2024-02-15T06:02:56;7.05;;;3.55;;
71042;SDS011;58696;52.134;5.500;2024-02-15T06:05:23;10.15;;;4.28;;
71042;SDS011;58696;52.134;5.500;2024-02-15T06:07:50;9.27;;;3.90;;
71042;SDS011;58696;52.134;5.500;2024-02-15T06:10:17;5.63;;;3.80;;
71042;SDS011;58696;52.134;5.500;2024-02-15T06:12:46;12.15;;;4.05;;
71042;SDS011;58696;52.134;5.500;2024-02-15T06:15:12;13.13;;;4.25;;
71042;SDS011;58696;52.134;5.500;2024-02-15T06:17:45;7.68;;;3.88;;
71042;SDS011;58696;52.134;5.500;2024-02-15T06:20:14;9.38;;;3.65;;
71042;SDS011;58696;52.134;5.500;2024-02-15T06:22:45;6.85;;;3.72;;
71042;SDS011;58696;52.134;5.500;2024-02-15T06:25:15;8.27;;;3.78;;
71042;SDS011;58696;52.134;5.500;2024-02-15T06:27:48;8.00;;;4.07;;
71042;SDS011;58696;52.134;5.500;2024-02-15T06:30:24;6.97;;;3.47;;
71042;SDS011;58696;52.134;5.500;2024-02-15T06:33:10;10.85;;;3.95;;
71042;SDS011;58696;52.134;5.500;2024-02-15T06:35:55;3.55;;;3.20;;
71042;SDS011;58696;52.134;5.500;2024-02-15T06:38:40;6.43;;;3.65;;
71042;SDS011;58696;52.134;5.500;2024-02-15T06:41:25;8.25;;;3.80;;
71042;SDS011;58696;52.134;5.500;2024-02-15T06:43:55;12.95;;;4.00;;
71042;SDS011;58696;52.134;5.500;2024-02-15T06:46:21;11.82;;;4.28;;
71042;SDS011;58696;52.134;5.500;2024-02-15T06:48:50;9.93;;;4.22;;
71042;SDS011;58696;52.134;5.500;2024-02-15T06:51:17;6.88;;;4.28;;
71042;SDS011;58696;52.134;5.500;2024-02-15T06:53:46;9.43;;;3.90;;
71042;SDS011;58696;52.134;5.500;2024-02-15T06:56:13;8.13;;;4.15;;
71042;SDS011;58696;52.134;5.500;2024-02-15T06:58:42;8.23;;;3.92;;
71042;SDS011;58696;52.134;5.500;2024-02-15T07:01:09;9.27;;;4.45;;
71042;SDS011;58696;52.134;5.500;2024-02-15T07:03:40;8.43;;;3.95;;
71042;SDS011;58696;52.134;5.500;2024-02-15T07:06:06;9.70;;;4.25;;
71042;SDS011;58696;52.134;5.500;2024-02-15T07:08:33;5.93;;;4.03;;
71042;SDS011;58696;52.134;5.500;2024-02-15T07:11:02;6.82;;;4.38;;
71042;SDS011;58696;52.134;5.500;2024-02-15T07:15:56;4.47;;;3.63;;
71042;SDS011;58696;52.134;5.500;2024-02-15T07:18:28;10.02;;;3.85;;
71042;SDS011;58696;52.134;5.500;2024-02-15T07:20:57;6.18;;;4.05;;
71042;SDS011;58696;52.134;5.500;2024-02-15T07:23:26;10.07;;;4.38;;
71042;SDS011;58696;52.134;5.500;2024-02-15T07:25:53;13.07;;;4.38;;
71042;SDS011;58696;52.134;5.500;2024-02-15T07:28:25;4.68;;;4.20;;
71042;SDS011;58696;52.134;5.500;2024-02-15T07:30:54;7.05;;;3.92;;
71042;SDS011;58696;52.134;5.500;2024-02-15T07:33:22;6.55;;;3.92;;
71042;SDS011;58696;52.134;5.500;2024-02-15T07:35:50;8.23;;;3.80;;
71042;SDS011;58696;52.134;5.500;2024-02-15T07:38:17;5.60;;;4.00;;
71042;SDS011;58696;52.134;5.500;2024-02-15T07:40:44;6.38;;;3.83;;
71042;SDS011;58696;52.134;5.500;2024-02-15T07:43:10;4.65;;;3.80;;
71042;SDS011;58696;52.134;5.500;2024-02-15T07:45:37;8.20;;;4.13;;
71042;SDS011;58696;52.134;5.500;2024-02-15T07:48:05;7.22;;;4.30;;
71042;SDS011;58696;52.134;5.500;2024-02-15T07:50:32;8.77;;;3.95;;
71042;SDS011;58696;52.134;5.500;2024-02-15T07:53:03;4.10;;;3.10;;
71042;SDS011;58696;52.134;5.500;2024-02-15T07:55:36;5.63;;;3.88;;
71042;SDS011;58696;52.134;5.500;2024-02-15T07:58:04;5.30;;;3.33;;
71042;SDS011;58696;52.134;5.500;2024-02-15T08:00:33;3.85;;;3.38;;
71042;SDS011;58696;52.134;5.500;2024-02-15T08:03:05;9.98;;;3.72;;
71042;SDS011;58696;52.134;5.500;2024-02-15T08:05:31;4.47;;;3.47;;
71042;SDS011;58696;52.134;5.500;2024-02-15T08:07:58;4.45;;;3.22;;
71042;SDS011;58696;52.134;5.500;2024-02-15T08:10:27;5.47;;;3.20;;
71042;SDS011;58696;52.134;5.500;2024-02-15T08:12:55;3.47;;;3.17;;
71042;SDS011;58696;52.134;5.500;2024-02-15T08:15:24;4.75;;;2.65;;
71042;SDS011;58696;52.134;5.500;2024-02-15T08:17:54;2.55;;;2.10;;
71042;SDS011;58696;52.134;5.500;2024-02-15T08:20:23;2.38;;;2.17;;
71042;SDS011;58696;52.134;5.500;2024-02-15T08:22:49;2.60;;;2.40;;
71042;SDS011;58696;52.134;5.500;2024-02-15T08:25:21;2.80;;;2.30;;
71042;SDS011;58696;52.134;5.500;2024-02-15T08:27:52;3.38;;;2.40;;
71042;SDS011;58696;52.134;5.500;2024-02-15T08:30:19;3.88;;;2.58;;
71042;SDS011;58696;52.134;5.500;2024-02-15T08:32:53;3.00;;;2.55;;
71042;SDS011;58696;52.134;5.500;2024-02-15T08:35:23;3.30;;;2.65;;
71042;SDS011;58696;52.134;5.500;2024-02-15T08:37:55;2.80;;;2.40;;
71042;SDS011;58696;52.134;5.500;2024-02-15T08:40:24;3.05;;;2.17;;
71042;SDS011;58696;52.134;5.500;2024-02-15T08:42:54;2.58;;;2.20;;
71042;SDS011;58696;52.134;5.500;2024-02-15T08:45:25;3.40;;;2.22;;
71042;SDS011;58696;52.134;5.500;2024-02-15T08:47:57;2.63;;;2.00;;
71042;SDS011;58696;52.134;5.500;2024-02-15T08:50:23;2.08;;;1.90;;
71042;SDS011;58696;52.134;5.500;2024-02-15T08:52:50;3.10;;;2.15;;
71042;SDS011;58696;52.134;5.500;2024-02-15T08:55:21;2.65;;;1.80;;
71042;SDS011;58696;52.134;5.500;2024-02-15T08:57:58;4.30;;;1.90;;
71042;SDS011;58696;52.134;5.500;2024-02-15T09:00:30;3.05;;;2.03;;
71042;SDS011;58696;52.134;5.500;2024-02-15T09:02:57;3.60;;;2.08;;
71042;SDS011;58696;52.134;5.500;2024-02-15T09:05:24;3.13;;;1.83;;
71042;SDS011;58696;52.134;5.500;2024-02-15T09:07:55;2.20;;;1.67;;
71042;SDS011;58696;52.134;5.500;2024-02-15T09:10:22;3.08;;;1.63;;
71042;SDS011;58696;52.134;5.500;2024-02-15T09:12:51;1.52;;;1.30;;
71042;SDS011;58696;52.134;5.500;2024-02-15T09:15:25;1.95;;;1.60;;
71042;SDS011;58696;52.134;5.500;2024-02-15T09:17:57;3.67;;;1.60;;
71042;SDS011;58696;52.134;5.500;2024-02-15T09:20:24;4.13;;;1.73;;
71042;SDS011;58696;52.134;5.500;2024-02-15T09:22:57;2.67;;;1.50;;
71042;SDS011;58696;52.134;5.500;2024-02-15T09:25:34;1.70;;;1.25;;
71042;SDS011;58696;52.134;5.500;2024-02-15T09:28:02;1.92;;;1.35;;
71042;SDS011;58696;52.134;5.500;2024-02-15T09:30:32;9.43;;;1.75;;
71042;SDS011;58696;52.134;5.500;2024-02-15T09:32:59;3.20;;;1.60;;
71042;SDS011;58696;52.134;5.500;2024-02-15T09:35:30;5.53;;;1.25;;
71042;SDS011;58696;52.134;5.500;2024-02-15T09:37:57;1.98;;;1.50;;
71042;SDS011;58696;52.134;5.500;2024-02-15T09:40:24;2.83;;;1.27;;
71042;SDS011;58696;52.134;5.500;2024-02-15T09:42:55;2.05;;;1.40;;
71042;SDS011;58696;52.134;5.500;2024-02-15T09:45:22;1.45;;;1.33;;
71042;SDS011;58696;52.134;5.500;2024-02-15T09:47:51;7.47;;;2.00;;
71042;SDS011;58696;52.134;5.500;2024-02-15T09:50:20;4.30;;;1.73;;
71042;SDS011;58696;52.134;5.500;2024-02-15T09:52:52;3.13;;;1.60;;
71042;SDS011;58696;52.134;5.500;2024-02-15T09:55:22;2.85;;;2.08;;
71042;SDS011;58696;52.134;5.500;2024-02-15T09:57:50;6.45;;;2.38;;
71042;SDS011;58696;52.134;5.500;2024-02-15T10:00:20;2.10;;;1.60;;
71042;SDS011;58696;52.134;5.500;2024-02-15T10:02:48;3.63;;;2.37;;
71042;SDS011;58696;52.134;5.500;2024-02-15T10:05:19;3.00;;;1.70;;
71042;SDS011;58696;52.134;5.500;2024-02-15T10:07:46;4.82;;;2.15;;
71042;SDS011;58696;52.134;5.500;2024-02-15T10:10:22;3.92;;;2.08;;
71042;SDS011;58696;52.134;5.500;2024-02-15T10:12:53;8.23;;;2.40;;
71042;SDS011;58696;52.134;5.500;2024-02-15T10:15:31;3.20;;;1.90;;
71042;SDS011;58696;52.134;5.500;2024-02-15T10:18:04;3.63;;;2.50;;
71042;SDS011;58696;52.134;5.500;2024-02-15T10:20:35;6.50;;;2.38;;
71042;SDS011;58696;52.134;5.500;2024-02-15T10:25:40;7.38;;;2.30;;
71042;SDS011;58696;52.134;5.500;2024-02-15T10:28:08;6.57;;;2.55;;
71042;SDS011;58696;52.134;5.500;2024-02-15T10:30:36;5.80;;;2.70;;
71042;SDS011;58696;52.134;5.500;2024-02-15T10:33:09;6.57;;;2.55;;
71042;SDS011;58696;52.134;5.500;2024-02-15T10:35:37;6.33;;;2.23;;
71042;SDS011;58696;52.134;5.500;2024-02-15T10:38:06;3.45;;;2.13;;
71042;SDS011;58696;52.134;5.500;2024-02-15T10:40:34;6.30;;;2.60;;
71042;SDS011;58696;52.134;5.500;2024-02-15T10:43:02;5.68;;;2.08;;
71042;SDS011;58696;52.134;5.500;2024-02-15T10:45:31;8.52;;;2.50;;
71042;SDS011;58696;52.134;5.500;2024-02-15T10:48:05;3.97;;;2.10;;
71042;SDS011;58696;52.134;5.500;2024-02-15T10:50:39;4.30;;;2.10;;
71042;SDS011;58696;52.134;5.500;2024-02-15T10:56:36;4.53;;;2.50;;
71042;SDS011;58696;52.134;5.500;2024-02-15T10:58:49;5.22;;;2.53;;
71042;SDS011;58696;52.134;5.500;2024-02-15T11:01:17;4.75;;;2.50;;
71042;SDS011;58696;52.134;5.500;2024-02-15T11:03:52;4.30;;;2.30;;
71042;SDS011;58696;52.134;5.500;2024-02-15T11:06:26;8.85;;;3.30;;
71042;SDS011;58696;52.134;5.500;2024-02-15T11:08:58;6.80;;;2.67;;
71042;SDS011;58696;52.134;5.500;2024-02-15T11:11:31;7.05;;;2.45;;
71042;SDS011;58696;52.134;5.500;2024-02-15T11:17:00;4.35;;;2.40;;
71042;SDS011;58696;52.134;5.500;2024-02-15T11:22:08;5.88;;;2.70;;
71042;SDS011;58696;52.134;5.500;2024-02-15T11:24:45;7.55;;;3.13;;
71042;SDS011;58696;52.134;5.500;2024-02-15T11:27:13;4.40;;;2.70;;
71042;SDS011;58696;52.134;5.500;2024-02-15T11:35:05;5.47;;;2.80;;
71042;SDS011;58696;52.134;5.500;2024-02-15T11:40:16;6.45;;;2.83;;
71042;SDS011;58696;52.134;5.500;2024-02-15T11:42:44;9.27;;;3.38;;
71042;SDS011;58696;52.134;5.500;2024-02-15T11:45:11;8.40;;;3.47;;
71042;SDS011;58696;52.134;5.500;2024-02-15T11:47:40;9.07;;;3.05;;
71042;SDS011;58696;52.134;5.500;2024-02-15T11:50:09;4.13;;;2.35;;
71042;SDS011;58696;52.134;5.500;2024-02-15T11:52:41;6.20;;;3.10;;
71042;SDS011;58696;52.134;5.500;2024-02-15T11:55:08;5.38;;;2.85;;
71042;SDS011;58696;52.134;5.500;2024-02-15T11:57:40;4.03;;;2.30;;
71042;SDS011;58696;52.134;5.500;2024-02-15T12:00:23;4.13;;;2.78;;
71042;SDS011;58696;52.134;5.500;2024-02-15T12:03:09;5.53;;;3.17;;
71042;SDS011;58696;52.134;5.500;2024-02-15T12:05:54;6.22;;;2.70;;
71042;SDS011;58696;52.134;5.500;2024-02-15T12:08:50;4.30;;;2.95;;
71042;SDS011;58696;52.134;5.500;2024-02-15T12:11:39;7.07;;;3.13;;
71042;SDS011;58696;52.134;5.500;2024-02-15T12:14:24;6.95;;;2.80;;
71042;SDS011;58696;52.134;5.500;2024-02-15T12:17:12;4.75;;;3.22;;
71042;SDS011;58696;52.134;5.500;2024-02-15T12:20:01;7.07;;;3.15;;
71042;SDS011;58696;52.134;5.500;2024-02-15T12:25:12;4.45;;;2.78;;
71042;SDS011;58696;52.134;5.500;2024-02-15T12:27:52;5.90;;;3.33;;
71042;SDS011;58696;52.134;5.500;2024-02-15T12:30:22;5.00;;;3.17;;
71042;SDS011;58696;52.134;5.500;2024-02-15T12:32:52;15.50;;;3.45;;
71042;SDS011;58696;52.134;5.500;2024-02-15T12:35:40;8.10;;;2.75;;
71042;SDS011;58696;52.134;5.500;2024-02-15T12:38:08;5.68;;;2.88;;
71042;SDS011;58696;52.134;5.500;2024-02-15T12:40:36;8.27;;;2.65;;
71042;SDS011;58696;52.134;5.500;2024-02-15T12:43:10;6.22;;;3.08;;
71042;SDS011;58696;52.134;5.500;2024-02-15T12:45:39;7.57;;;2.95;;
71042;SDS011;58696;52.134;5.500;2024-02-15T12:48:08;6.57;;;2.85;;
71042;SDS011;58696;52.134;5.500;2024-02-15T12:50:35;6.47;;;2.58;;
71042;SDS011;58696;52.134;5.500;2024-02-15T12:53:02;10.18;;;3.40;;
71042;SDS011;58696;52.134;5.500;2024-02-15T12:55:30;10.55;;;2.95;;
71042;SDS011;58696;52.134;5.500;2024-02-15T12:58:05;5.97;;;2.60;;
71042;SDS011;58696;52.134;5.500;2024-02-15T13:00:36;5.80;;;2.70;;
71042;SDS011;58696;52.134;5.500;2024-02-15T13:03:07;5.65;;;2.85;;
71042;SDS011;58696;52.134;5.500;2024-02-15T13:05:39;6.57;;;2.72;;
71042;SDS011;58696;52.134;5.500;2024-02-15T13:08:07;6.38;;;2.50;;
71042;SDS011;58696;52.134;5.500;2024-02-15T13:10:40;4.45;;;2.75;;
71042;SDS011;58696;52.134;5.500;2024-02-15T13:13:10;4.35;;;2.63;;
71042;SDS011;58696;52.134;5.500;2024-02-15T13:15:37;8.27;;;2.90;;
71042;SDS011;58696;52.134;5.500;2024-02-15T13:18:07;6.75;;;2.20;;
71042;SDS011;58696;52.134;5.500;2024-02-15T13:20:40;7.10;;;2.58;;
71042;SDS011;58696;52.134;5.500;2024-02-15T13:23:08;10.65;;;2.22;;
71042;SDS011;58696;52.134;5.500;2024-02-15T13:25:49;3.53;;;2.08;;
71042;SDS011;58696;52.134;5.500;2024-02-15T13:28:23;7.28;;;2.63;;
71042;SDS011;58696;52.134;5.500;2024-02-15T13:30:51;5.20;;;2.30;;
71042;SDS011;58696;52.134;5.500;2024-02-15T13:33:20;5.93;;;2.13;;
71042;SDS011;58696;52.134;5.500;2024-02-15T13:35:51;6.55;;;2.33;;
71042;SDS011;58696;52.134;5.500;2024-02-15T13:38:18;5.18;;;2.60;;
71042;SDS011;58696;52.134;5.500;2024-02-15T13:40:51;5.90;;;2.05;;
71042;SDS011;58696;52.134;5.500;2024-02-15T13:43:25;5.25;;;2.15;;
71042;SDS011;58696;52.134;5.500;2024-02-15T13:45:52;2.47;;;1.90;;
71042;SDS011;58696;52.134;5.500;2024-02-15T13:48:21;5.40;;;2.57;;
71042;SDS011;58696;52.134;5.500;2024-02-15T13:50:53;5.38;;;2.28;;
71042;SDS011;58696;52.134;5.500;2024-02-15T13:53:20;4.47;;;2.55;;
71042;SDS011;58696;52.134;5.500;2024-02-15T13:55:49;4.45;;;2.42;;
71042;SDS011;58696;52.134;5.500;2024-02-15T13:58:18;5.65;;;2.30;;
71042;SDS011;58696;52.134;5.500;2024-02-15T14:00:45;5.28;;;2.53;;
71042;SDS011;58696;52.134;5.500;2024-02-15T14:03:14;4.82;;;2.25;;
71042;SDS011;58696;52.134;5.500;2024-02-15T14:05:42;8.98;;;2.42;;
71042;SDS011;58696;52.134;5.500;2024-02-15T14:08:13;9.52;;;2.38;;
71042;SDS011;58696;52.134;5.500;2024-02-15T14:10:40;6.45;;;2.60;;
71042;SDS011;58696;52.134;5.500;2024-02-15T14:13:07;4.67;;;2.50;;
71042;SDS011;58696;52.134;5.500;2024-02-15T14:15:39;3.47;;;1.95;;
71042;SDS011;58696;52.134;5.500;2024-02-15T14:18:08;4.00;;;1.98;;
71042;SDS011;58696;52.134;5.500;2024-02-15T14:20:46;11.55;;;2.20;;
71042;SDS011;58696;52.134;5.500;2024-02-15T14:23:14;3.67;;;2.00;;
71042;SDS011;58696;52.134;5.500;2024-02-15T14:25:44;4.18;;;2.17;;
71042;SDS011;58696;52.134;5.500;2024-02-15T14:28:12;4.13;;;2.40;;
71042;SDS011;58696;52.134;5.500;2024-02-15T14:30:40;3.67;;;2.33;;
71042;SDS011;58696;52.134;5.500;2024-02-15T14:35:57;4.88;;;2.05;;
71042;SDS011;58696;52.134;5.500;2024-02-15T14:38:26;8.63;;;2.38;;
71042;SDS011;58696;52.134;5.500;2024-02-15T14:40:55;2.78;;;1.70;;
71042;SDS011;58696;52.134;5.500;2024-02-15T14:43:24;5.03;;;2.03;;
71042;SDS011;58696;52.134;5.500;2024-02-15T14:45:53;3.10;;;2.10;;
71042;SDS011;58696;52.134;5.500;2024-02-15T14:48:20;4.80;;;2.15;;
71042;SDS011;58696;52.134;5.500;2024-02-15T14:50:48;3.45;;;2.20;;
71042;SDS011;58696;52.134;5.500;2024-02-15T14:53:22;6.10;;;1.92;;
71042;SDS011;58696;52.134;5.500;2024-02-15T14:55:52;2.85;;;1.90;;
71042;SDS011;58696;52.134;5.500;2024-02-15T14:58:19;5.43;;;2.57;;
71042;SDS011;58696;52.134;5.500;2024-02-15T15:00:50;3.58;;;2.15;;
71042;SDS011;58696;52.134;5.500;2024-02-15T15:05:54;5.45;;;2.28;;
71042;SDS011;58696;52.134;5.500;2024-02-15T15:08:40;3.97;;;2.80;;
71042;SDS011;58696;52.134;5.500;2024-02-15T15:11:24;5.65;;;2.60;;
71042;SDS011;58696;52.134;5.500;2024-02-15T15:14:09;4.65;;;2.40;;
71042;SDS011;58696;52.134;5.500;2024-02-15T15:16:36;6.57;;;2.40;;
71042;SDS011;58696;52.134;5.500;2024-02-15T15:19:08;6.05;;;2.80;;
71042;SDS011;58696;52.134;5.500;2024-02-15T15:21:37;7.25;;;2.58;;
71042;SDS011;58696;52.134;5.500;2024-02-15T15:24:04;4.40;;;2.67;;
71042;SDS011;58696;52.134;5.500;2024-02-15T15:26:30;4.57;;;2.70;;
71042;SDS011;58696;52.134;5.500;2024-02-15T15:28:59;9.82;;;3.42;;
71042;SDS011;58696;52.134;5.500;2024-02-15T15:31:29;8.07;;;2.78;;